sensor_id;sensor_type;location;lat;lon;timestamp;P1;durP1;ratioP1;P2;durP2;ratioP2
6537;SDS011;3302;52.508;13.454;2022-11-20T00:00:11;14.27;;;8.87;;
6537;SDS011;3302;52.508;13.454;2022-11-20T00:02:37;11.80;;;9.17;;
6537;SDS011;3302;52.508;13.454;2022-11-20T00:05:03;13.50;;;9.27;;
6537;SDS011;3302;52.508;13.454;2022-11-20T00:07:29;13.37;;;9.77;;
6537;SDS011;3302;52.508;13.454;2022-11-20T00:09:55;14.77;;;9.47;;
6537;SDS011;3302;52.508;13.454;2022-11-20T00:12:21;13.73;;;8.67;;
6537;SDS011;3302;52.508;13.454;2022-11-20T00:14:47;11.30;;;8.43;;
6537;SDS011;3302;52.508;13.454;2022-11-20T00:17:12;11.53;;;8.67;;
6537;SDS011;3302;52.508;13.454;2022-11-20T00:19:38;12.90;;;8.63;;
6537;SDS011;3302;52.508;13.454;2022-11-20T00:22:04;10.13;;;7.97;;
6537;SDS011;3302;52.508;13.454;2022-11-20T00:24:30;12.03;;;9.50;;
6537;SDS011;3302;52.508;13.454;2022-11-20T00:26:55;12.00;;;9.23;;
6537;SDS011;3302;52.508;13.454;2022-11-20T00:29:21;12.00;;;8.80;;
6537;SDS011;3302;52.508;13.454;2022-11-20T00:31:47;13.73;;;8.97;;
6537;SDS011;3302;52.508;13.454;2022-11-20T00:34:12;14.50;;;9.67;;
6537;SDS011;3302;52.508;13.454;2022-11-20T00:36:38;13.50;;;9.33;;
6537;SDS011;3302;52.508;13.454;2022-11-20T00:39:04;13.03;;;9.80;;
6537;SDS011;3302;52.508;13.454;2022-11-20T00:41:30;12.17;;;9.00;;
6537;SDS011;3302;52.508;13.454;2022-11-20T00:43:56;12.80;;;9.80;;
6537;SDS011;3302;52.508;13.454;2022-11-20T00:46:23;12.00;;;8.73;;
6537;SDS011;3302;52.508;13.454;2022-11-20T00:48:51;12.33;;;9.77;;
6537;SDS011;3302;52.508;13.454;2022-11-20T00:51:17;11.97;;;9.13;;
6537;SDS011;3302;52.508;13.454;2022-11-20T00:53:45;14.10;;;9.93;;
6537;SDS011;3302;52.508;13.454;2022-11-20T00:56:12;13.03;;;9.80;;
6537;SDS011;3302;52.508;13.454;2022-11-20T00:58:39;12.27;;;9.27;;
6537;SDS011;3302;52.508;13.454;2022-11-20T01:01:25;14.23;;;9.60;;
6537;SDS011;3302;52.508;13.454;2022-11-20T01:03:53;16.23;;;11.20;;
6537;SDS011;3302;52.508;13.454;2022-11-20T01:06:20;15.10;;;10.20;;
6537;SDS011;3302;52.508;13.454;2022-11-20T01:08:52;14.40;;;10.23;;
6537;SDS011;3302;52.508;13.454;2022-11-20T01:11:20;14.10;;;9.73;;
6537;SDS011;3302;52.508;13.454;2022-11-20T01:13:51;12.87;;;9.60;;
6537;SDS011;3302;52.508;13.454;2022-11-20T01:16:22;23.70;;;15.80;;
6537;SDS011;3302;52.508;13.454;2022-11-20T01:18:50;14.47;;;9.20;;
6537;SDS011;3302;52.508;13.454;2022-11-20T01:21:21;14.13;;;8.77;;
6537;SDS011;3302;52.508;13.454;2022-11-20T01:23:52;11.20;;;8.47;;
6537;SDS011;3302;52.508;13.454;2022-11-20T01:26:19;13.33;;;9.57;;
6537;SDS011;3302;52.508;13.454;2022-11-20T01:28:47;13.60;;;9.63;;
6537;SDS011;3302;52.508;13.454;2022-11-20T01:31:17;13.27;;;9.27;;
6537;SDS011;3302;52.508;13.454;2022-11-20T01:33:49;14.03;;;10.63;;
6537;SDS011;3302;52.508;13.454;2022-11-20T01:36:18;16.97;;;10.90;;
6537;SDS011;3302;52.508;13.454;2022-11-20T01:38:45;14.67;;;10.23;;
6537;SDS011;3302;52.508;13.454;2022-11-20T01:41:11;17.40;;;10.43;;
6537;SDS011;3302;52.508;13.454;2022-11-20T01:43:59;15.57;;;9.70;;
6537;SDS011;3302;52.508;13.454;2022-11-20T01:46:25;14.67;;;9.77;;
6537;SDS011;3302;52.508;13.454;2022-11-20T01:48:57;14.37;;;9.80;;
6537;SDS011;3302;52.508;13.454;2022-11-20T01:51:35;15.47;;;11.00;;
6537;SDS011;3302;52.508;13.454;2022-11-20T01:54:11;22.60;;;13.73;;
6537;SDS011;3302;52.508;13.454;2022-11-20T01:56:42;17.20;;;11.03;;
6537;SDS011;3302;52.508;13.454;2022-11-20T01:59:10;11.27;;;9.17;;
6537;SDS011;3302;52.508;13.454;2022-11-20T02:01:39;12.67;;;9.27;;
6537;SDS011;3302;52.508;13.454;2022-11-20T02:04:05;13.47;;;9.23;;
6537;SDS011;3302;52.508;13.454;2022-11-20T02:06:44;11.67;;;8.93;;
6537;SDS011;3302;52.508;13.454;2022-11-20T02:09:14;12.87;;;9.47;;
6537;SDS011;3302;52.508;13.454;2022-11-20T02:11:41;11.53;;;9.37;;
6537;SDS011;3302;52.508;13.454;2022-11-20T02:14:07;13.10;;;9.27;;
6537;SDS011;3302;52.508;13.454;2022-11-20T02:16:35;11.77;;;8.77;;
6537;SDS011;3302;52.508;13.454;2022-11-20T02:19:06;13.47;;;9.40;;
6537;SDS011;3302;52.508;13.454;2022-11-20T02:21:40;11.93;;;9.10;;
6537;SDS011;3302;52.508;13.454;2022-11-20T02:24:19;12.20;;;8.83;;
6537;SDS011;3302;52.508;13.454;2022-11-20T02:29:37;12.33;;;8.80;;
6537;SDS011;3302;52.508;13.454;2022-11-20T02:32:16;11.63;;;8.43;;
6537;SDS011;3302;52.508;13.454;2022-11-20T02:34:51;13.63;;;9.10;;
6537;SDS011;3302;52.508;13.454;2022-11-20T02:37:17;11.33;;;8.70;;
6537;SDS011;3302;52.508;13.454;2022-11-20T02:39:44;12.60;;;8.77;;
6537;SDS011;3302;52.508;13.454;2022-11-20T02:42:12;10.60;;;8.60;;
6537;SDS011;3302;52.508;13.454;2022-11-20T02:44:38;11.60;;;8.73;;
6537;SDS011;3302;52.508;13.454;2022-11-20T02:47:04;15.17;;;9.63;;
6537;SDS011;3302;52.508;13.454;2022-11-20T02:49:30;11.70;;;8.53;;
6537;SDS011;3302;52.508;13.454;2022-11-20T02:51:56;11.80;;;7.90;;
6537;SDS011;3302;52.508;13.454;2022-11-20T02:54:22;11.03;;;8.57;;
6537;SDS011;3302;52.508;13.454;2022-11-20T02:56:48;11.93;;;9.03;;
6537;SDS011;3302;52.508;13.454;2022-11-20T02:59:14;12.10;;;8.23;;
6537;SDS011;3302;52.508;13.454;2022-11-20T03:01:40;13.00;;;8.70;;
6537;SDS011;3302;52.508;13.454;2022-11-20T03:04:06;11.83;;;8.80;;
6537;SDS011;3302;52.508;13.454;2022-11-20T03:06:31;11.87;;;9.10;;
6537;SDS011;3302;52.508;13.454;2022-11-20T03:08:57;11.87;;;9.00;;
6537;SDS011;3302;52.508;13.454;2022-11-20T03:11:23;10.83;;;8.53;;
6537;SDS011;3302;52.508;13.454;2022-11-20T03:13:49;12.33;;;8.97;;
6537;SDS011;3302;52.508;13.454;2022-11-20T03:16:16;14.30;;;9.30;;
6537;SDS011;3302;52.508;13.454;2022-11-20T03:18:43;12.87;;;9.03;;
6537;SDS011;3302;52.508;13.454;2022-11-20T03:21:10;13.07;;;9.70;;
6537;SDS011;3302;52.508;13.454;2022-11-20T03:23:37;13.30;;;9.73;;
6537;SDS011;3302;52.508;13.454;2022-11-20T03:26:14;14.60;;;9.13;;
6537;SDS011;3302;52.508;13.454;2022-11-20T03:28:46;12.13;;;9.83;;
6537;SDS011;3302;52.508;13.454;2022-11-20T03:31:16;12.97;;;9.47;;
6537;SDS011;3302;52.508;13.454;2022-11-20T03:33:44;12.97;;;9.07;;
6537;SDS011;3302;52.508;13.454;2022-11-20T03:36:11;13.27;;;9.77;;
6537;SDS011;3302;52.508;13.454;2022-11-20T03:38:38;14.33;;;10.67;;
6537;SDS011;3302;52.508;13.454;2022-11-20T03:41:05;19.20;;;12.03;;
6537;SDS011;3302;52.508;13.454;2022-11-20T03:43:35;15.00;;;10.87;;
6537;SDS011;3302;52.508;13.454;2022-11-20T03:46:01;14.23;;;9.53;;
6537;SDS011;3302;52.508;13.454;2022-11-20T03:48:27;13.50;;;9.47;;
6537;SDS011;3302;52.508;13.454;2022-11-20T03:50:54;11.90;;;9.70;;
6537;SDS011;3302;52.508;13.454;2022-11-20T03:53:32;13.27;;;9.17;;
6537;SDS011;3302;52.508;13.454;2022-11-20T03:55:58;14.27;;;10.20;;
6537;SDS011;3302;52.508;13.454;2022-11-20T03:58:24;14.70;;;10.13;;
6537;SDS011;3302;52.508;13.454;2022-11-20T04:00:50;13.60;;;9.00;;
6537;SDS011;3302;52.508;13.454;2022-11-20T04:03:16;15.57;;;9.60;;
6537;SDS011;3302;52.508;13.454;2022-11-20T04:05:41;12.83;;;8.90;;
6537;SDS011;3302;52.508;13.454;2022-11-20T04:08:07;13.27;;;9.70;;
6537;SDS011;3302;52.508;13.454;2022-11-20T04:10:33;13.97;;;9.83;;
6537;SDS011;3302;52.508;13.454;2022-11-20T04:12:59;13.03;;;8.97;;
6537;SDS011;3302;52.508;13.454;2022-11-20T04:15:24;12.93;;;9.27;;
6537;SDS011;3302;52.508;13.454;2022-11-20T04:17:50;12.97;;;9.53;;
6537;SDS011;3302;52.508;13.454;2022-11-20T04:20:16;13.57;;;9.70;;
6537;SDS011;3302;52.508;13.454;2022-11-20T04:22:42;12.43;;;9.37;;
6537;SDS011;3302;52.508;13.454;2022-11-20T04:25:07;13.40;;;8.97;;
6537;SDS011;3302;52.508;13.454;2022-11-20T04:27:33;14.53;;;9.33;;
6537;SDS011;3302;52.508;13.454;2022-11-20T04:29:59;12.57;;;9.33;;
6537;SDS011;3302;52.508;13.454;2022-11-20T04:32:25;11.93;;;8.90;;
6537;SDS011;3302;52.508;13.454;2022-11-20T04:34:50;13.57;;;9.63;;
6537;SDS011;3302;52.508;13.454;2022-11-20T04:37:16;14.80;;;9.83;;
6537;SDS011;3302;52.508;13.454;2022-11-20T04:39:42;13.13;;;9.73;;
6537;SDS011;3302;52.508;13.454;2022-11-20T04:42:08;12.23;;;9.40;;
6537;SDS011;3302;52.508;13.454;2022-11-20T04:44:53;13.70;;;10.07;;
6537;SDS011;3302;52.508;13.454;2022-11-20T04:47:20;13.13;;;9.80;;
6537;SDS011;3302;52.508;13.454;2022-11-20T04:49:46;13.43;;;10.17;;
6537;SDS011;3302;52.508;13.454;2022-11-20T04:52:12;14.73;;;10.20;;
6537;SDS011;3302;52.508;13.454;2022-11-20T04:54:37;15.00;;;10.47;;
6537;SDS011;3302;52.508;13.454;2022-11-20T04:57:03;13.43;;;10.13;;
6537;SDS011;3302;52.508;13.454;2022-11-20T04:59:29;12.97;;;10.27;;
6537;SDS011;3302;52.508;13.454;2022-11-20T05:01:55;13.73;;;9.67;;
6537;SDS011;3302;52.508;13.454;2022-11-20T05:04:21;12.53;;;9.70;;
6537;SDS011;3302;52.508;13.454;2022-11-20T05:06:46;13.73;;;10.13;;
6537;SDS011;3302;52.508;13.454;2022-11-20T05:09:12;16.07;;;10.67;;
6537;SDS011;3302;52.508;13.454;2022-11-20T05:11:38;13.87;;;10.27;;
6537;SDS011;3302;52.508;13.454;2022-11-20T05:14:04;13.63;;;9.80;;
6537;SDS011;3302;52.508;13.454;2022-11-20T05:16:29;12.23;;;9.53;;
6537;SDS011;3302;52.508;13.454;2022-11-20T05:18:55;12.83;;;9.30;;
6537;SDS011;3302;52.508;13.454;2022-11-20T05:21:21;13.57;;;9.80;;
6537;SDS011;3302;52.508;13.454;2022-11-20T05:23:47;13.23;;;10.17;;
6537;SDS011;3302;52.508;13.454;2022-11-20T05:26:17;15.53;;;10.60;;
6537;SDS011;3302;52.508;13.454;2022-11-20T05:28:45;12.83;;;9.50;;
6537;SDS011;3302;52.508;13.454;2022-11-20T05:31:12;15.83;;;10.53;;
6537;SDS011;3302;52.508;13.454;2022-11-20T05:33:45;17.33;;;10.60;;
6537;SDS011;3302;52.508;13.454;2022-11-20T05:36:12;13.77;;;9.90;;
6537;SDS011;3302;52.508;13.454;2022-11-20T05:38:39;14.53;;;10.23;;
6537;SDS011;3302;52.508;13.454;2022-11-20T05:41:10;13.90;;;9.77;;
6537;SDS011;3302;52.508;13.454;2022-11-20T05:43:36;13.90;;;10.00;;
6537;SDS011;3302;52.508;13.454;2022-11-20T05:46:04;13.13;;;9.53;;
6537;SDS011;3302;52.508;13.454;2022-11-20T05:48:32;12.97;;;9.60;;
6537;SDS011;3302;52.508;13.454;2022-11-20T05:50:59;12.37;;;9.47;;
6537;SDS011;3302;52.508;13.454;2022-11-20T05:53:25;14.17;;;10.13;;
6537;SDS011;3302;52.508;13.454;2022-11-20T05:56:01;14.53;;;10.27;;
6537;SDS011;3302;52.508;13.454;2022-11-20T05:58:27;14.30;;;9.87;;
6537;SDS011;3302;52.508;13.454;2022-11-20T06:00:53;13.77;;;9.33;;
6537;SDS011;3302;52.508;13.454;2022-11-20T06:03:19;12.83;;;9.97;;
6537;SDS011;3302;52.508;13.454;2022-11-20T06:05:45;14.77;;;9.67;;
6537;SDS011;3302;52.508;13.454;2022-11-20T06:08:11;14.27;;;10.03;;
6537;SDS011;3302;52.508;13.454;2022-11-20T06:10:37;13.70;;;9.50;;
6537;SDS011;3302;52.508;13.454;2022-11-20T06:13:03;13.80;;;9.30;;
6537;SDS011;3302;52.508;13.454;2022-11-20T06:15:29;13.60;;;9.97;;
6537;SDS011;3302;52.508;13.454;2022-11-20T06:17:55;15.27;;;9.87;;
6537;SDS011;3302;52.508;13.454;2022-11-20T06:20:23;13.57;;;9.97;;
6537;SDS011;3302;52.508;13.454;2022-11-20T06:22:49;14.80;;;10.33;;
6537;SDS011;3302;52.508;13.454;2022-11-20T06:25:15;16.90;;;10.23;;
6537;SDS011;3302;52.508;13.454;2022-11-20T06:27:41;14.23;;;10.27;;
6537;SDS011;3302;52.508;13.454;2022-11-20T06:30:07;16.00;;;10.53;;
6537;SDS011;3302;52.508;13.454;2022-11-20T06:32:33;13.80;;;9.90;;
6537;SDS011;3302;52.508;13.454;2022-11-20T06:34:59;14.30;;;9.30;;
6537;SDS011;3302;52.508;13.454;2022-11-20T06:37:25;15.83;;;10.13;;
6537;SDS011;3302;52.508;13.454;2022-11-20T06:39:50;12.50;;;9.23;;
6537;SDS011;3302;52.508;13.454;2022-11-20T06:42:16;12.43;;;9.80;;
6537;SDS011;3302;52.508;13.454;2022-11-20T06:44:42;13.97;;;9.70;;
6537;SDS011;3302;52.508;13.454;2022-11-20T06:47:08;13.77;;;9.77;;
6537;SDS011;3302;52.508;13.454;2022-11-20T06:49:34;13.10;;;9.83;;
6537;SDS011;3302;52.508;13.454;2022-11-20T06:51:59;14.83;;;10.33;;
6537;SDS011;3302;52.508;13.454;2022-11-20T06:54:25;14.97;;;9.67;;
6537;SDS011;3302;52.508;13.454;2022-11-20T06:56:51;14.33;;;9.53;;
6537;SDS011;3302;52.508;13.454;2022-11-20T06:59:16;13.27;;;9.33;;
6537;SDS011;3302;52.508;13.454;2022-11-20T07:01:42;14.03;;;10.00;;
6537;SDS011;3302;52.508;13.454;2022-11-20T07:04:08;16.20;;;9.70;;
6537;SDS011;3302;52.508;13.454;2022-11-20T07:06:34;14.10;;;9.07;;
6537;SDS011;3302;52.508;13.454;2022-11-20T07:09:00;14.20;;;9.40;;
6537;SDS011;3302;52.508;13.454;2022-11-20T07:11:26;14.17;;;9.93;;
6537;SDS011;3302;52.508;13.454;2022-11-20T07:13:52;14.80;;;9.93;;
6537;SDS011;3302;52.508;13.454;2022-11-20T07:16:18;14.33;;;9.50;;
6537;SDS011;3302;52.508;13.454;2022-11-20T07:18:44;15.50;;;10.23;;
6537;SDS011;3302;52.508;13.454;2022-11-20T07:21:10;12.63;;;9.60;;
6537;SDS011;3302;52.508;13.454;2022-11-20T07:23:36;14.37;;;9.60;;
6537;SDS011;3302;52.508;13.454;2022-11-20T07:26:05;13.13;;;9.77;;
6537;SDS011;3302;52.508;13.454;2022-11-20T07:28:32;14.27;;;10.10;;
6537;SDS011;3302;52.508;13.454;2022-11-20T07:30:58;14.47;;;10.00;;
6537;SDS011;3302;52.508;13.454;2022-11-20T07:33:24;14.20;;;10.77;;
6537;SDS011;3302;52.508;13.454;2022-11-20T07:35:50;14.37;;;10.43;;
6537;SDS011;3302;52.508;13.454;2022-11-20T07:38:16;12.97;;;9.47;;
6537;SDS011;3302;52.508;13.454;2022-11-20T07:40:41;16.60;;;10.97;;
6537;SDS011;3302;52.508;13.454;2022-11-20T07:43:07;13.37;;;9.67;;
6537;SDS011;3302;52.508;13.454;2022-11-20T07:45:33;14.40;;;10.07;;
6537;SDS011;3302;52.508;13.454;2022-11-20T07:47:59;13.40;;;9.70;;
6537;SDS011;3302;52.508;13.454;2022-11-20T07:50:25;13.00;;;9.80;;
6537;SDS011;3302;52.508;13.454;2022-11-20T07:52:51;12.80;;;9.80;;
6537;SDS011;3302;52.508;13.454;2022-11-20T07:55:17;13.47;;;9.67;;
6537;SDS011;3302;52.508;13.454;2022-11-20T07:57:43;15.13;;;10.43;;
6537;SDS011;3302;52.508;13.454;2022-11-20T08:00:09;17.10;;;10.00;;
6537;SDS011;3302;52.508;13.454;2022-11-20T08:02:40;13.83;;;9.90;;
6537;SDS011;3302;52.508;13.454;2022-11-20T08:05:06;14.63;;;10.33;;
6537;SDS011;3302;52.508;13.454;2022-11-20T08:07:39;14.17;;;10.97;;
6537;SDS011;3302;52.508;13.454;2022-11-20T08:10:07;13.23;;;10.00;;
6537;SDS011;3302;52.508;13.454;2022-11-20T08:12:34;14.60;;;10.50;;
6537;SDS011;3302;52.508;13.454;2022-11-20T08:15:18;14.97;;;10.33;;
6537;SDS011;3302;52.508;13.454;2022-11-20T08:17:44;13.53;;;9.93;;
6537;SDS011;3302;52.508;13.454;2022-11-20T08:20:10;14.80;;;10.40;;
6537;SDS011;3302;52.508;13.454;2022-11-20T08:22:35;13.37;;;9.77;;
6537;SDS011;3302;52.508;13.454;2022-11-20T08:25:01;13.83;;;9.97;;
6537;SDS011;3302;52.508;13.454;2022-11-20T08:27:27;14.23;;;10.60;;
6537;SDS011;3302;52.508;13.454;2022-11-20T08:29:53;15.03;;;11.07;;
6537;SDS011;3302;52.508;13.454;2022-11-20T08:32:18;14.67;;;10.53;;
6537;SDS011;3302;52.508;13.454;2022-11-20T08:34:44;15.57;;;11.40;;
6537;SDS011;3302;52.508;13.454;2022-11-20T08:37:11;14.73;;;10.90;;
6537;SDS011;3302;52.508;13.454;2022-11-20T08:39:37;15.00;;;10.90;;
6537;SDS011;3302;52.508;13.454;2022-11-20T08:42:06;18.53;;;12.07;;
6537;SDS011;3302;52.508;13.454;2022-11-20T08:44:32;17.57;;;12.07;;
6537;SDS011;3302;52.508;13.454;2022-11-20T08:46:58;17.13;;;10.63;;
6537;SDS011;3302;52.508;13.454;2022-11-20T08:49:25;17.70;;;11.40;;
6537;SDS011;3302;52.508;13.454;2022-11-20T08:51:50;16.20;;;11.47;;
6537;SDS011;3302;52.508;13.454;2022-11-20T08:54:18;16.53;;;10.63;;
6537;SDS011;3302;52.508;13.454;2022-11-20T08:56:47;16.03;;;11.10;;
6537;SDS011;3302;52.508;13.454;2022-11-20T08:59:13;15.80;;;10.77;;
6537;SDS011;3302;52.508;13.454;2022-11-20T09:01:38;17.73;;;11.27;;
6537;SDS011;3302;52.508;13.454;2022-11-20T09:04:04;14.40;;;10.43;;
6537;SDS011;3302;52.508;13.454;2022-11-20T09:06:30;15.00;;;10.20;;
6537;SDS011;3302;52.508;13.454;2022-11-20T09:08:56;16.63;;;11.03;;
6537;SDS011;3302;52.508;13.454;2022-11-20T09:11:22;16.17;;;10.33;;
6537;SDS011;3302;52.508;13.454;2022-11-20T09:13:48;13.60;;;10.07;;
6537;SDS011;3302;52.508;13.454;2022-11-20T09:16:14;13.50;;;10.00;;
6537;SDS011;3302;52.508;13.454;2022-11-20T09:18:39;14.97;;;10.43;;
6537;SDS011;3302;52.508;13.454;2022-11-20T09:21:06;15.93;;;11.23;;
6537;SDS011;3302;52.508;13.454;2022-11-20T09:23:37;14.67;;;10.07;;
6537;SDS011;3302;52.508;13.454;2022-11-20T09:26:04;13.70;;;10.03;;
6537;SDS011;3302;52.508;13.454;2022-11-20T09:28:32;14.77;;;10.20;;
6537;SDS011;3302;52.508;13.454;2022-11-20T09:30:58;15.00;;;10.43;;
6537;SDS011;3302;52.508;13.454;2022-11-20T09:33:24;14.50;;;10.30;;
6537;SDS011;3302;52.508;13.454;2022-11-20T09:35:50;14.97;;;10.43;;
6537;SDS011;3302;52.508;13.454;2022-11-20T09:38:16;14.57;;;9.83;;
6537;SDS011;3302;52.508;13.454;2022-11-20T09:40:58;16.03;;;11.03;;
6537;SDS011;3302;52.508;13.454;2022-11-20T09:43:32;13.43;;;9.57;;
6537;SDS011;3302;52.508;13.454;2022-11-20T09:46:20;13.77;;;10.23;;
6537;SDS011;3302;52.508;13.454;2022-11-20T09:48:53;15.00;;;10.77;;
6537;SDS011;3302;52.508;13.454;2022-11-20T09:57:05;14.90;;;10.03;;
6537;SDS011;3302;52.508;13.454;2022-11-20T09:59:44;14.53;;;10.33;;
6537;SDS011;3302;52.508;13.454;2022-11-20T10:08:02;15.50;;;10.10;;
6537;SDS011;3302;52.508;13.454;2022-11-20T10:10:39;13.00;;;9.37;;
6537;SDS011;3302;52.508;13.454;2022-11-20T10:21:18;11.70;;;8.83;;
6537;SDS011;3302;52.508;13.454;2022-11-20T10:23:59;14.27;;;10.00;;
6537;SDS011;3302;52.508;13.454;2022-11-20T10:26:35;13.27;;;9.80;;
6537;SDS011;3302;52.508;13.454;2022-11-20T10:29:17;13.03;;;9.83;;
6537;SDS011;3302;52.508;13.454;2022-11-20T10:31:50;14.17;;;10.20;;
6537;SDS011;3302;52.508;13.454;2022-11-20T10:37:02;16.23;;;10.63;;
6537;SDS011;3302;52.508;13.454;2022-11-20T10:39:43;14.57;;;10.83;;
6537;SDS011;3302;52.508;13.454;2022-11-20T10:42:26;13.77;;;10.20;;
6537;SDS011;3302;52.508;13.454;2022-11-20T10:44:58;13.93;;;10.30;;
6537;SDS011;3302;52.508;13.454;2022-11-20T10:47:38;15.13;;;10.77;;
6537;SDS011;3302;52.508;13.454;2022-11-20T10:50:05;13.70;;;9.73;;
6537;SDS011;3302;52.508;13.454;2022-11-20T10:58:10;14.27;;;9.83;;
6537;SDS011;3302;52.508;13.454;2022-11-20T11:00:42;13.87;;;10.13;;
6537;SDS011;3302;52.508;13.454;2022-11-20T11:03:15;16.13;;;10.57;;
6537;SDS011;3302;52.508;13.454;2022-11-20T11:05:54;15.83;;;10.73;;
6537;SDS011;3302;52.508;13.454;2022-11-20T11:08:41;14.60;;;10.50;;
6537;SDS011;3302;52.508;13.454;2022-11-20T11:13:46;13.03;;;10.33;;
6537;SDS011;3302;52.508;13.454;2022-11-20T11:16:19;15.40;;;10.83;;
6537;SDS011;3302;52.508;13.454;2022-11-20T11:18:48;15.47;;;10.80;;
6537;SDS011;3302;52.508;13.454;2022-11-20T11:21:14;14.27;;;9.60;;
6537;SDS011;3302;52.508;13.454;2022-11-20T11:23:48;16.07;;;9.83;;
6537;SDS011;3302;52.508;13.454;2022-11-20T11:26:26;15.83;;;9.37;;
6537;SDS011;3302;52.508;13.454;2022-11-20T11:28:56;11.97;;;9.40;;
6537;SDS011;3302;52.508;13.454;2022-11-20T11:31:26;13.73;;;8.80;;
6537;SDS011;3302;52.508;13.454;2022-11-20T11:34:03;14.87;;;9.60;;
6537;SDS011;3302;52.508;13.454;2022-11-20T11:36:30;12.60;;;9.50;;
6537;SDS011;3302;52.508;13.454;2022-11-20T11:38:59;13.13;;;9.00;;
6537;SDS011;3302;52.508;13.454;2022-11-20T11:41:28;13.50;;;9.17;;
6537;SDS011;3302;52.508;13.454;2022-11-20T11:44:00;11.27;;;8.90;;
6537;SDS011;3302;52.508;13.454;2022-11-20T11:46:58;11.93;;;8.80;;
6537;SDS011;3302;52.508;13.454;2022-11-20T11:49:24;14.07;;;8.93;;
6537;SDS011;3302;52.508;13.454;2022-11-20T11:54:32;12.93;;;9.27;;
6537;SDS011;3302;52.508;13.454;2022-11-20T11:57:04;13.27;;;9.17;;
6537;SDS011;3302;52.508;13.454;2022-11-20T12:08:32;14.43;;;10.40;;
6537;SDS011;3302;52.508;13.454;2022-11-20T12:11:21;16.20;;;10.90;;
6537;SDS011;3302;52.508;13.454;2022-11-20T12:16:49;14.10;;;9.70;;
6537;SDS011;3302;52.508;13.454;2022-11-20T12:19:15;12.90;;;9.40;;
6537;SDS011;3302;52.508;13.454;2022-11-20T12:30:14;12.37;;;8.73;;
6537;SDS011;3302;52.508;13.454;2022-11-20T12:35:41;12.47;;;9.40;;
6537;SDS011;3302;52.508;13.454;2022-11-20T12:43:42;13.87;;;9.47;;
6537;SDS011;3302;52.508;13.454;2022-11-20T12:46:47;16.00;;;9.93;;
6537;SDS011;3302;52.508;13.454;2022-11-20T12:49:38;12.23;;;8.70;;
6537;SDS011;3302;52.508;13.454;2022-11-20T13:00:56;13.93;;;7.93;;
6537;SDS011;3302;52.508;13.454;2022-11-20T13:03:32;9.83;;;6.70;;
6537;SDS011;3302;52.508;13.454;2022-11-20T13:08:39;9.37;;;7.57;;
6537;SDS011;3302;52.508;13.454;2022-11-20T13:11:12;9.10;;;6.23;;
6537;SDS011;3302;52.508;13.454;2022-11-20T13:19:03;10.63;;;6.30;;
6537;SDS011;3302;52.508;13.454;2022-11-20T13:24:19;9.43;;;6.53;;
6537;SDS011;3302;52.508;13.454;2022-11-20T13:26:59;10.17;;;6.17;;
6537;SDS011;3302;52.508;13.454;2022-11-20T13:29:46;8.53;;;6.07;;
6537;SDS011;3302;52.508;13.454;2022-11-20T13:32:25;8.50;;;5.87;;
6537;SDS011;3302;52.508;13.454;2022-11-20T13:34:53;8.57;;;6.17;;
6537;SDS011;3302;52.508;13.454;2022-11-20T13:37:25;8.50;;;6.30;;
6537;SDS011;3302;52.508;13.454;2022-11-20T13:48:45;8.83;;;6.53;;
6537;SDS011;3302;52.508;13.454;2022-11-20T13:51:21;9.33;;;6.97;;
6537;SDS011;3302;52.508;13.454;2022-11-20T14:02:23;9.37;;;6.53;;
6537;SDS011;3302;52.508;13.454;2022-11-20T14:04:53;9.77;;;7.63;;
6537;SDS011;3302;52.508;13.454;2022-11-20T14:07:22;8.13;;;5.83;;
6537;SDS011;3302;52.508;13.454;2022-11-20T14:09:56;8.93;;;6.30;;
6537;SDS011;3302;52.508;13.454;2022-11-20T14:12:27;7.40;;;5.50;;
6537;SDS011;3302;52.508;13.454;2022-11-20T14:14:54;10.23;;;6.57;;
6537;SDS011;3302;52.508;13.454;2022-11-20T14:19:48;9.33;;;6.47;;
6537;SDS011;3302;52.508;13.454;2022-11-20T14:22:23;10.80;;;5.87;;
6537;SDS011;3302;52.508;13.454;2022-11-20T14:27:41;9.27;;;6.13;;
6537;SDS011;3302;52.508;13.454;2022-11-20T14:30:12;9.67;;;6.50;;
6537;SDS011;3302;52.508;13.454;2022-11-20T14:32:44;9.23;;;6.30;;
6537;SDS011;3302;52.508;13.454;2022-11-20T14:35:17;9.50;;;6.93;;
6537;SDS011;3302;52.508;13.454;2022-11-20T14:37:46;8.10;;;6.30;;
6537;SDS011;3302;52.508;13.454;2022-11-20T14:40:22;9.20;;;5.80;;
6537;SDS011;3302;52.508;13.454;2022-11-20T14:42:51;7.57;;;5.77;;
6537;SDS011;3302;52.508;13.454;2022-11-20T14:45:17;8.83;;;6.57;;
6537;SDS011;3302;52.508;13.454;2022-11-20T14:47:44;8.80;;;6.33;;
6537;SDS011;3302;52.508;13.454;2022-11-20T14:50:16;9.57;;;6.87;;
6537;SDS011;3302;52.508;13.454;2022-11-20T14:52:57;9.70;;;7.20;;
6537;SDS011;3302;52.508;13.454;2022-11-20T14:55:25;9.20;;;6.80;;
6537;SDS011;3302;52.508;13.454;2022-11-20T14:57:59;8.57;;;6.50;;
6537;SDS011;3302;52.508;13.454;2022-11-20T15:00:55;10.40;;;8.93;;
6537;SDS011;3302;52.508;13.454;2022-11-20T15:03:35;11.73;;;9.40;;
6537;SDS011;3302;52.508;13.454;2022-11-20T15:06:04;11.27;;;5.80;;
6537;SDS011;3302;52.508;13.454;2022-11-20T15:08:32;8.27;;;6.70;;
6537;SDS011;3302;52.508;13.454;2022-11-20T15:10:59;8.67;;;6.20;;
6537;SDS011;3302;52.508;13.454;2022-11-20T15:13:26;8.93;;;6.43;;
6537;SDS011;3302;52.508;13.454;2022-11-20T15:21:41;9.70;;;6.60;;
6537;SDS011;3302;52.508;13.454;2022-11-20T15:24:08;8.20;;;5.90;;
6537;SDS011;3302;52.508;13.454;2022-11-20T15:26:34;11.10;;;7.00;;
6537;SDS011;3302;52.508;13.454;2022-11-20T15:29:02;8.93;;;7.07;;
6537;SDS011;3302;52.508;13.454;2022-11-20T15:31:29;10.37;;;6.13;;
6537;SDS011;3302;52.508;13.454;2022-11-20T15:33:55;7.13;;;5.63;;
6537;SDS011;3302;52.508;13.454;2022-11-20T15:36:21;7.93;;;6.30;;
6537;SDS011;3302;52.508;13.454;2022-11-20T15:38:46;10.10;;;6.70;;
6537;SDS011;3302;52.508;13.454;2022-11-20T15:41:12;11.50;;;9.10;;
6537;SDS011;3302;52.508;13.454;2022-11-20T15:43:38;10.17;;;7.13;;
6537;SDS011;3302;52.508;13.454;2022-11-20T15:46:05;8.77;;;6.77;;
6537;SDS011;3302;52.508;13.454;2022-11-20T15:48:35;9.03;;;6.33;;
6537;SDS011;3302;52.508;13.454;2022-11-20T15:53:42;11.30;;;7.00;;
6537;SDS011;3302;52.508;13.454;2022-11-20T15:56:09;11.17;;;7.30;;
6537;SDS011;3302;52.508;13.454;2022-11-20T15:58:38;10.07;;;7.17;;
6537;SDS011;3302;52.508;13.454;2022-11-20T16:01:04;10.33;;;8.00;;
6537;SDS011;3302;52.508;13.454;2022-11-20T16:03:30;11.07;;;8.10;;
6537;SDS011;3302;52.508;13.454;2022-11-20T16:05:56;9.27;;;7.57;;
6537;SDS011;3302;52.508;13.454;2022-11-20T16:08:22;9.77;;;6.70;;
6537;SDS011;3302;52.508;13.454;2022-11-20T16:10:48;8.53;;;6.60;;
6537;SDS011;3302;52.508;13.454;2022-11-20T16:13:15;11.03;;;7.87;;
6537;SDS011;3302;52.508;13.454;2022-11-20T16:16:02;9.33;;;7.23;;
6537;SDS011;3302;52.508;13.454;2022-11-20T16:18:31;12.03;;;8.27;;
6537;SDS011;3302;52.508;13.454;2022-11-20T16:20:57;10.63;;;6.83;;
6537;SDS011;3302;52.508;13.454;2022-11-20T16:23:23;13.70;;;7.93;;
6537;SDS011;3302;52.508;13.454;2022-11-20T16:25:49;11.07;;;7.93;;
6537;SDS011;3302;52.508;13.454;2022-11-20T16:28:15;11.83;;;8.33;;
6537;SDS011;3302;52.508;13.454;2022-11-20T16:30:41;10.53;;;7.50;;
6537;SDS011;3302;52.508;13.454;2022-11-20T16:33:11;9.77;;;8.13;;
6537;SDS011;3302;52.508;13.454;2022-11-20T16:35:38;11.57;;;8.20;;
6537;SDS011;3302;52.508;13.454;2022-11-20T16:38:04;12.13;;;8.13;;
6537;SDS011;3302;52.508;13.454;2022-11-20T16:40:30;8.73;;;6.27;;
6537;SDS011;3302;52.508;13.454;2022-11-20T16:42:55;9.90;;;6.87;;
6537;SDS011;3302;52.508;13.454;2022-11-20T16:45:22;11.33;;;7.93;;
6537;SDS011;3302;52.508;13.454;2022-11-20T16:47:48;12.17;;;8.53;;
6537;SDS011;3302;52.508;13.454;2022-11-20T16:50:14;10.43;;;7.90;;